sensor_id;sensor_type;location;lat;lon;timestamp;pressure;altitude;pressure_sealevel;temperature;humidity
76815;BME280;65768;49.906;19.384;2022-12-04T00:01:24;98903.54;;;-0.30;85.50
76815;BME280;65768;49.906;19.384;2022-12-04T00:03:54;98895.45;;;-0.28;85.39
76815;BME280;65768;49.906;19.384;2022-12-04T00:06:23;98901.83;;;-0.27;85.51
76815;BME280;65768;49.906;19.384;2022-12-04T00:08:52;98905.45;;;-0.27;85.44
76815;BME280;65768;49.906;19.384;2022-12-04T00:11:23;98905.23;;;-0.28;85.45
76815;BME280;65768;49.906;19.384;2022-12-04T00:13:51;98906.21;;;-0.29;85.54
76815;BME280;65768;49.906;19.384;2022-12-04T00:16:21;98905.35;;;-0.29;85.49
76815;BME280;65768;49.906;19.384;2022-12-04T00:18:51;98902.19;;;-0.27;85.44
76815;BME280;65768;49.906;19.384;2022-12-04T00:21:19;98894.35;;;-0.26;85.55
76815;BME280;65768;49.906;19.384;2022-12-04T00:23:48;98891.19;;;-0.25;85.73
76815;BME280;65768;49.906;19.384;2022-12-04T00:26:19;98885.92;;;-0.23;85.70
76815;BME280;65768;49.906;19.384;2022-12-04T00:28:48;98886.02;;;-0.25;85.73
76815;BME280;65768;49.906;19.384;2022-12-04T00:31:21;98896.15;;;-0.25;85.43
76815;BME280;65768;49.906;19.384;2022-12-04T00:33:50;98885.33;;;-0.25;85.39
76815;BME280;65768;49.906;19.384;2022-12-04T00:36:20;98889.79;;;-0.25;85.35
76815;BME280;65768;49.906;19.384;2022-12-04T00:38:48;98891.00;;;-0.25;85.17
76815;BME280;65768;49.906;19.384;2022-12-04T00:41:19;98889.10;;;-0.25;85.31
76815;BME280;65768;49.906;19.384;2022-12-04T00:43:47;98889.08;;;-0.26;85.47
76815;BME280;65768;49.906;19.384;2022-12-04T00:46:15;98889.70;;;-0.27;85.64
76815;BME280;65768;49.906;19.384;2022-12-04T00:48:44;98889.98;;;-0.28;85.69
76815;BME280;65768;49.906;19.384;2022-12-04T00:51:15;98882.52;;;-0.30;85.64
76815;BME280;65768;49.906;19.384;2022-12-04T00:53:44;98881.50;;;-0.29;85.51
76815;BME280;65768;49.906;19.384;2022-12-04T00:56:15;98876.08;;;-0.28;85.81
76815;BME280;65768;49.906;19.384;2022-12-04T00:58:43;98879.17;;;-0.28;85.57
76815;BME280;65768;49.906;19.384;2022-12-04T01:01:14;98879.17;;;-0.28;85.83
76815;BME280;65768;49.906;19.384;2022-12-04T01:03:43;98878.27;;;-0.29;85.72
76815;BME280;65768;49.906;19.384;2022-12-04T01:06:20;98875.94;;;-0.31;85.94
76815;BME280;65768;49.906;19.384;2022-12-04T01:08:49;98876.05;;;-0.32;85.84
76815;BME280;65768;49.906;19.384;2022-12-04T01:11:18;98869.30;;;-0.33;85.88
76815;BME280;65768;49.906;19.384;2022-12-04T01:13:46;98873.73;;;-0.34;85.69
76815;BME280;65768;49.906;19.384;2022-12-04T01:16:27;98867.30;;;-0.35;86.05
76815;BME280;65768;49.906;19.384;2022-12-04T01:18:55;98875.27;;;-0.37;85.87
76815;BME280;65768;49.906;19.384;2022-12-04T01:21:23;98875.72;;;-0.38;86.05
76815;BME280;65768;49.906;19.384;2022-12-04T01:23:51;98868.84;;;-0.38;86.03
76815;BME280;65768;49.906;19.384;2022-12-04T01:26:19;98869.59;;;-0.37;86.17
76815;BME280;65768;49.906;19.384;2022-12-04T01:28:47;98864.04;;;-0.39;86.09
76815;BME280;65768;49.906;19.384;2022-12-04T01:31:17;98857.77;;;-0.40;86.05
76815;BME280;65768;49.906;19.384;2022-12-04T01:33:46;98861.28;;;-0.42;86.60
76815;BME280;65768;49.906;19.384;2022-12-04T01:36:17;98866.91;;;-0.46;86.70
76815;BME280;65768;49.906;19.384;2022-12-04T01:38:46;98861.77;;;-0.49;86.64
76815;BME280;65768;49.906;19.384;2022-12-04T01:41:17;98856.11;;;-0.53;86.87
76815;BME280;65768;49.906;19.384;2022-12-04T01:44:08;98863.41;;;-0.53;86.93
76815;BME280;65768;49.906;19.384;2022-12-04T01:46:38;98864.09;;;-0.57;87.21
76815;BME280;65768;49.906;19.384;2022-12-04T01:49:11;98864.52;;;-0.58;87.24
76815;BME280;65768;49.906;19.384;2022-12-04T01:51:44;98853.09;;;-0.60;86.96
76815;BME280;65768;49.906;19.384;2022-12-04T01:54:17;98860.21;;;-0.62;87.18
76815;BME280;65768;49.906;19.384;2022-12-04T01:57:17;98855.40;;;-0.62;87.32
76815;BME280;65768;49.906;19.384;2022-12-04T02:02:22;98859.40;;;-0.61;87.52
76815;BME280;65768;49.906;19.384;2022-12-04T02:04:53;98861.21;;;-0.59;86.93
76815;BME280;65768;49.906;19.384;2022-12-04T02:07:21;98854.29;;;-0.57;87.40
76815;BME280;65768;49.906;19.384;2022-12-04T02:09:49;98850.00;;;-0.55;87.37
76815;BME280;65768;49.906;19.384;2022-12-04T02:12:31;98847.83;;;-0.54;87.11
76815;BME280;65768;49.906;19.384;2022-12-04T02:15:10;98849.60;;;-0.53;86.91
76815;BME280;65768;49.906;19.384;2022-12-04T02:26:55;98854.84;;;-0.54;87.03
76815;BME280;65768;49.906;19.384;2022-12-04T02:35:25;98856.38;;;-0.57;86.78
76815;BME280;65768;49.906;19.384;2022-12-04T02:38:16;98856.87;;;-0.60;87.17
76815;BME280;65768;49.906;19.384;2022-12-04T02:41:15;98860.44;;;-0.64;86.93
76815;BME280;65768;49.906;19.384;2022-12-04T02:43:51;98860.20;;;-0.65;87.16
76815;BME280;65768;49.906;19.384;2022-12-04T02:46:40;98863.30;;;-0.65;87.38
76815;BME280;65768;49.906;19.384;2022-12-04T02:49:17;98855.95;;;-0.64;87.12
76815;BME280;65768;49.906;19.384;2022-12-04T02:51:47;98857.27;;;-0.65;87.13
76815;BME280;65768;49.906;19.384;2022-12-04T02:54:22;98859.09;;;-0.66;87.09
76815;BME280;65768;49.906;19.384;2022-12-04T02:56:52;98862.48;;;-0.67;87.14
76815;BME280;65768;49.906;19.384;2022-12-04T02:59:28;98854.11;;;-0.67;87.30
76815;BME280;65768;49.906;19.384;2022-12-04T03:02:03;98851.13;;;-0.68;87.40
76815;BME280;65768;49.906;19.384;2022-12-04T03:04:35;98860.41;;;-0.68;87.41
76815;BME280;65768;49.906;19.384;2022-12-04T03:07:13;98854.19;;;-0.69;87.60
76815;BME280;65768;49.906;19.384;2022-12-04T03:09:49;98858.75;;;-0.70;87.21
76815;BME280;65768;49.906;19.384;2022-12-04T03:14:57;98864.90;;;-0.70;87.39
76815;BME280;65768;49.906;19.384;2022-12-04T03:17:32;98865.52;;;-0.72;87.54
76815;BME280;65768;49.906;19.384;2022-12-04T03:20:06;98856.20;;;-0.73;87.41
76815;BME280;65768;49.906;19.384;2022-12-04T03:22:40;98859.17;;;-0.72;87.82
76815;BME280;65768;49.906;19.384;2022-12-04T03:25:09;98866.71;;;-0.72;87.66
76815;BME280;65768;49.906;19.384;2022-12-04T03:27:59;98872.40;;;-0.71;87.49
76815;BME280;65768;49.906;19.384;2022-12-04T03:30:38;98870.98;;;-0.72;87.28
76815;BME280;65768;49.906;19.384;2022-12-04T03:33:12;98879.75;;;-0.71;87.47
76815;BME280;65768;49.906;19.384;2022-12-04T03:35:48;98877.30;;;-0.72;87.66
76815;BME280;65768;49.906;19.384;2022-12-04T03:40:53;98864.64;;;-0.72;87.54
76815;BME280;65768;49.906;19.384;2022-12-04T03:45:55;98866.17;;;-0.75;87.76
76815;BME280;65768;49.906;19.384;2022-12-04T03:48:34;98867.69;;;-0.76;87.75
76815;BME280;65768;49.906;19.384;2022-12-04T03:51:15;98858.50;;;-0.78;87.54
76815;BME280;65768;49.906;19.384;2022-12-04T03:53:54;98851.98;;;-0.78;87.67
76815;BME280;65768;49.906;19.384;2022-12-04T03:56:30;98856.79;;;-0.78;87.48
76815;BME280;65768;49.906;19.384;2022-12-04T03:59:11;98860.59;;;-0.77;87.49
76815;BME280;65768;49.906;19.384;2022-12-04T04:01:46;98851.95;;;-0.76;87.73
76815;BME280;65768;49.906;19.384;2022-12-04T04:04:27;98850.04;;;-0.76;87.53
76815;BME280;65768;49.906;19.384;2022-12-04T04:07:09;98853.18;;;-0.78;87.52
76815;BME280;65768;49.906;19.384;2022-12-04T04:09:43;98859.80;;;-0.79;87.67
76815;BME280;65768;49.906;19.384;2022-12-04T04:12:19;98858.70;;;-0.80;87.66
76815;BME280;65768;49.906;19.384;2022-12-04T04:14:52;98860.91;;;-0.81;87.76
76815;BME280;65768;49.906;19.384;2022-12-04T04:17:43;98849.16;;;-0.80;87.83
76815;BME280;65768;49.906;19.384;2022-12-04T04:20:52;98853.16;;;-0.78;87.90
76815;BME280;65768;49.906;19.384;2022-12-04T04:23:43;98856.96;;;-0.78;87.70
76815;BME280;65768;49.906;19.384;2022-12-04T04:26:36;98851.91;;;-0.79;87.67
76815;BME280;65768;49.906;19.384;2022-12-04T04:29:06;98849.77;;;-0.81;87.56
76815;BME280;65768;49.906;19.384;2022-12-04T04:37:11;98851.33;;;-0.84;87.50
76815;BME280;65768;49.906;19.384;2022-12-04T04:43:03;98857.76;;;-0.82;87.71
76815;BME280;65768;49.906;19.384;2022-12-04T04:45:42;98852.55;;;-0.83;87.80
76815;BME280;65768;49.906;19.384;2022-12-04T04:48:40;98850.48;;;-0.83;87.59
76815;BME280;65768;49.906;19.384;2022-12-04T04:51:07;98844.67;;;-0.86;87.77
76815;BME280;65768;49.906;19.384;2022-12-04T04:53:42;98845.17;;;-0.87;87.82
76815;BME280;65768;49.906;19.384;2022-12-04T04:56:12;98845.50;;;-0.86;87.68
76815;BME280;65768;49.906;19.384;2022-12-04T04:58:41;98848.70;;;-0.85;87.84
76815;BME280;65768;49.906;19.384;2022-12-04T05:01:16;98846.38;;;-0.83;87.59
76815;BME280;65768;49.906;19.384;2022-12-04T05:03:44;98850.91;;;-0.82;87.90
76815;BME280;65768;49.906;19.384;2022-12-04T05:06:13;98848.05;;;-0.81;87.72
76815;BME280;65768;49.906;19.384;2022-12-04T05:08:40;98844.71;;;-0.86;87.63
76815;BME280;65768;49.906;19.384;2022-12-04T05:11:13;98849.09;;;-0.90;87.47
76815;BME280;65768;49.906;19.384;2022-12-04T05:13:41;98848.07;;;-0.90;87.70
76815;BME280;65768;49.906;19.384;2022-12-04T05:16:12;98847.13;;;-0.91;87.46
76815;BME280;65768;49.906;19.384;2022-12-04T05:18:40;98849.13;;;-0.92;87.51
76815;BME280;65768;49.906;19.384;2022-12-04T05:21:31;98847.20;;;-0.93;87.65
76815;BME280;65768;49.906;19.384;2022-12-04T05:23:59;98842.16;;;-0.95;87.45
76815;BME280;65768;49.906;19.384;2022-12-04T05:26:27;98847.84;;;-0.97;87.47
76815;BME280;65768;49.906;19.384;2022-12-04T05:28:55;98850.77;;;-1.00;87.52
76815;BME280;65768;49.906;19.384;2022-12-04T05:31:23;98847.77;;;-0.99;87.92
76815;BME280;65768;49.906;19.384;2022-12-04T05:33:51;98840.19;;;-0.96;87.88
76815;BME280;65768;49.906;19.384;2022-12-04T05:36:19;98837.67;;;-0.96;87.96
76815;BME280;65768;49.906;19.384;2022-12-04T05:38:47;98838.19;;;-0.99;87.74
76815;BME280;65768;49.906;19.384;2022-12-04T05:41:15;98837.55;;;-1.00;87.33
76815;BME280;65768;49.906;19.384;2022-12-04T05:43:42;98838.98;;;-1.03;87.59
76815;BME280;65768;49.906;19.384;2022-12-04T05:46:11;98840.59;;;-1.04;87.65
76815;BME280;65768;49.906;19.384;2022-12-04T05:48:39;98836.23;;;-1.06;87.37
76815;BME280;65768;49.906;19.384;2022-12-04T05:51:08;98843.34;;;-1.07;87.51
76815;BME280;65768;49.906;19.384;2022-12-04T05:53:37;98847.33;;;-1.06;87.68
76815;BME280;65768;49.906;19.384;2022-12-04T05:56:07;98847.98;;;-1.06;87.40
76815;BME280;65768;49.906;19.384;2022-12-04T05:58:36;98849.57;;;-1.06;87.88
76815;BME280;65768;49.906;19.384;2022-12-04T06:01:13;98849.92;;;-1.06;87.66
76815;BME280;65768;49.906;19.384;2022-12-04T06:03:42;98849.77;;;-1.08;87.75
76815;BME280;65768;49.906;19.384;2022-12-04T06:06:15;98846.66;;;-1.09;87.60
76815;BME280;65768;49.906;19.384;2022-12-04T06:08:43;98847.02;;;-1.08;87.49
76815;BME280;65768;49.906;19.384;2022-12-04T06:11:13;98851.61;;;-1.06;87.55
76815;BME280;65768;49.906;19.384;2022-12-04T06:13:43;98848.59;;;-1.05;87.70
76815;BME280;65768;49.906;19.384;2022-12-04T06:16:20;98854.66;;;-1.04;87.42
76815;BME280;65768;49.906;19.384;2022-12-04T06:18:51;98859.09;;;-1.04;87.86
76815;BME280;65768;49.906;19.384;2022-12-04T06:21:20;98853.23;;;-1.05;87.90
76815;BME280;65768;49.906;19.384;2022-12-04T06:23:50;98857.30;;;-1.05;88.09
76815;BME280;65768;49.906;19.384;2022-12-04T06:26:19;98864.98;;;-1.06;87.57
76815;BME280;65768;49.906;19.384;2022-12-04T06:28:47;98863.05;;;-1.03;88.07
76815;BME280;65768;49.906;19.384;2022-12-04T06:31:15;98861.92;;;-1.02;88.23
76815;BME280;65768;49.906;19.384;2022-12-04T06:33:45;98854.50;;;-1.00;87.94
76815;BME280;65768;49.906;19.384;2022-12-04T06:36:15;98852.88;;;-0.99;87.85
76815;BME280;65768;49.906;19.384;2022-12-04T06:38:44;98857.30;;;-0.97;87.86
76815;BME280;65768;49.906;19.384;2022-12-04T06:41:14;98857.77;;;-0.94;88.03
76815;BME280;65768;49.906;19.384;2022-12-04T06:43:46;98853.25;;;-0.92;88.02
76815;BME280;65768;49.906;19.384;2022-12-04T06:46:17;98851.64;;;-0.90;87.99
76815;BME280;65768;49.906;19.384;2022-12-04T06:48:46;98853.69;;;-0.87;87.67
76815;BME280;65768;49.906;19.384;2022-12-04T06:51:16;98855.53;;;-0.82;87.53
76815;BME280;65768;49.906;19.384;2022-12-04T06:53:45;98854.95;;;-0.74;87.64
76815;BME280;65768;49.906;19.384;2022-12-04T06:56:16;98858.52;;;-0.68;87.71
76815;BME280;65768;49.906;19.384;2022-12-04T06:58:46;98860.16;;;-0.63;87.30
76815;BME280;65768;49.906;19.384;2022-12-04T07:01:16;98855.13;;;-0.61;87.39
76815;BME280;65768;49.906;19.384;2022-12-04T07:03:45;98851.34;;;-0.58;86.95
76815;BME280;65768;49.906;19.384;2022-12-04T07:06:26;98845.14;;;-0.59;86.82
76815;BME280;65768;49.906;19.384;2022-12-04T07:08:57;98845.13;;;-0.59;87.28
76815;BME280;65768;49.906;19.384;2022-12-04T07:11:26;98848.35;;;-0.57;86.82
76815;BME280;65768;49.906;19.384;2022-12-04T07:13:54;98856.42;;;-0.53;87.09
76815;BME280;65768;49.906;19.384;2022-12-04T07:16:25;98855.06;;;-0.46;87.23
76815;BME280;65768;49.906;19.384;2022-12-04T07:18:53;98850.82;;;-0.43;87.19
76815;BME280;65768;49.906;19.384;2022-12-04T07:21:25;98850.91;;;-0.41;86.81
76815;BME280;65768;49.906;19.384;2022-12-04T07:23:56;98850.35;;;-0.38;87.13
76815;BME280;65768;49.906;19.384;2022-12-04T07:26:26;98856.95;;;-0.34;86.85
76815;BME280;65768;49.906;19.384;2022-12-04T07:28:56;98845.40;;;-0.26;87.14
76815;BME280;65768;49.906;19.384;2022-12-04T07:31:25;98840.09;;;-0.22;87.16
76815;BME280;65768;49.906;19.384;2022-12-04T07:33:54;98839.37;;;-0.19;86.88
76815;BME280;65768;49.906;19.384;2022-12-04T07:36:24;98838.31;;;-0.20;86.85
76815;BME280;65768;49.906;19.384;2022-12-04T07:38:56;98841.94;;;-0.16;86.80
76815;BME280;65768;49.906;19.384;2022-12-04T07:41:24;98841.89;;;-0.14;86.62
76815;BME280;65768;49.906;19.384;2022-12-04T07:43:53;98846.29;;;-0.12;86.40
76815;BME280;65768;49.906;19.384;2022-12-04T07:46:25;98841.89;;;-0.14;86.49
76815;BME280;65768;49.906;19.384;2022-12-04T07:48:55;98838.52;;;-0.13;86.68
76815;BME280;65768;49.906;19.384;2022-12-04T07:51:28;98843.27;;;-0.10;86.83
76815;BME280;65768;49.906;19.384;2022-12-04T07:53:56;98842.03;;;-0.01;86.75
76815;BME280;65768;49.906;19.384;2022-12-04T07:56:25;98841.67;;;0.08;86.60
76815;BME280;65768;49.906;19.384;2022-12-04T07:58:52;98848.95;;;0.16;86.73
76815;BME280;65768;49.906;19.384;2022-12-04T08:01:22;98849.45;;;0.23;86.37
76815;BME280;65768;49.906;19.384;2022-12-04T08:03:53;98844.70;;;0.27;86.24
76815;BME280;65768;49.906;19.384;2022-12-04T08:06:23;98842.00;;;0.35;86.42
76815;BME280;65768;49.906;19.384;2022-12-04T08:08:52;98849.91;;;0.49;86.03
76815;BME280;65768;49.906;19.384;2022-12-04T08:11:24;98852.35;;;0.63;85.80
76815;BME280;65768;49.906;19.384;2022-12-04T08:13:56;98857.89;;;0.75;85.69
76815;BME280;65768;49.906;19.384;2022-12-04T08:16:27;98855.78;;;0.88;85.59
76815;BME280;65768;49.906;19.384;2022-12-04T08:18:56;98862.07;;;0.90;85.34
76815;BME280;65768;49.906;19.384;2022-12-04T08:21:26;98863.84;;;0.74;85.10
76815;BME280;65768;49.906;19.384;2022-12-04T08:23:56;98878.56;;;0.77;85.27
76815;BME280;65768;49.906;19.384;2022-12-04T08:26:27;98881.48;;;0.87;85.19
76815;BME280;65768;49.906;19.384;2022-12-04T08:28:56;98879.60;;;0.94;85.12
76815;BME280;65768;49.906;19.384;2022-12-04T08:31:27;98881.17;;;1.02;84.93
76815;BME280;65768;49.906;19.384;2022-12-04T08:33:57;98882.94;;;1.06;85.05
76815;BME280;65768;49.906;19.384;2022-12-04T08:36:26;98879.64;;;1.06;84.84
76815;BME280;65768;49.906;19.384;2022-12-04T08:38:54;98881.47;;;1.08;84.88
76815;BME280;65768;49.906;19.384;2022-12-04T08:41:23;98874.13;;;1.02;84.78
76815;BME280;65768;49.906;19.384;2022-12-04T08:43:54;98877.06;;;0.88;84.79
76815;BME280;65768;49.906;19.384;2022-12-04T08:46:23;98879.17;;;0.86;85.11
76815;BME280;65768;49.906;19.384;2022-12-04T08:48:53;98871.59;;;0.82;85.18
76815;BME280;65768;49.906;19.384;2022-12-04T08:51:24;98872.84;;;0.79;85.43
76815;BME280;65768;49.906;19.384;2022-12-04T08:53:54;98867.38;;;0.76;85.19
76815;BME280;65768;49.906;19.384;2022-12-04T08:56:23;98870.77;;;0.79;85.47
76815;BME280;65768;49.906;19.384;2022-12-04T08:58:51;98869.49;;;0.91;85.65
76815;BME280;65768;49.906;19.384;2022-12-04T09:01:20;98871.54;;;0.95;85.31
76815;BME280;65768;49.906;19.384;2022-12-04T09:03:48;98877.07;;;0.88;85.38
76815;BME280;65768;49.906;19.384;2022-12-04T09:06:16;98877.77;;;0.89;85.26
76815;BME280;65768;49.906;19.384;2022-12-04T09:08:45;98878.30;;;1.07;85.34
76815;BME280;65768;49.906;19.384;2022-12-04T09:11:17;98879.61;;;1.16;85.05
76815;BME280;65768;49.906;19.384;2022-12-04T09:13:45;98879.23;;;1.23;84.79
76815;BME280;65768;49.906;19.384;2022-12-04T09:16:17;98871.84;;;1.26;84.65
76815;BME280;65768;49.906;19.384;2022-12-04T09:18:46;98862.60;;;1.30;84.58
76815;BME280;65768;49.906;19.384;2022-12-04T09:21:16;98872.33;;;1.33;84.51
76815;BME280;65768;49.906;19.384;2022-12-04T09:23:45;98873.36;;;1.40;84.51
76815;BME280;65768;49.906;19.384;2022-12-04T09:26:25;98865.21;;;1.46;84.23
76815;BME280;65768;49.906;19.384;2022-12-04T09:28:59;98856.86;;;1.36;84.20
76815;BME280;65768;49.906;19.384;2022-12-04T09:31:28;98848.51;;;1.23;84.20
76815;BME280;65768;49.906;19.384;2022-12-04T09:33:57;98839.90;;;1.19;84.34
76815;BME280;65768;49.906;19.384;2022-12-04T09:36:26;98845.59;;;1.19;84.52
76815;BME280;65768;49.906;19.384;2022-12-04T09:38:54;98842.28;;;1.26;84.57
76815;BME280;65768;49.906;19.384;2022-12-04T09:41:35;98840.76;;;1.33;84.64
76815;BME280;65768;49.906;19.384;2022-12-04T09:44:17;98834.05;;;1.40;84.56
76815;BME280;65768;49.906;19.384;2022-12-04T09:46:52;98823.52;;;1.36;84.19
76815;BME280;65768;49.906;19.384;2022-12-04T09:49:39;98825.53;;;1.34;84.41
76815;BME280;65768;49.906;19.384;2022-12-04T09:52:21;98828.71;;;1.44;84.51
76815;BME280;65768;49.906;19.384;2022-12-04T09:54:52;98827.15;;;1.44;84.40
76815;BME280;65768;49.906;19.384;2022-12-04T09:57:26;98822.39;;;1.26;84.33
76815;BME280;65768;49.906;19.384;2022-12-04T09:59:57;98825.77;;;1.13;84.67
76815;BME280;65768;49.906;19.384;2022-12-04T10:02:34;98823.52;;;1.17;84.81
76815;BME280;65768;49.906;19.384;2022-12-04T10:06:00;98819.65;;;1.15;84.83
76815;BME280;65768;49.906;19.384;2022-12-04T10:08:18;98813.08;;;1.14;84.68
76815;BME280;65768;49.906;19.384;2022-12-04T10:10:53;98812.17;;;1.17;84.96
76815;BME280;65768;49.906;19.384;2022-12-04T10:16:21;98806.73;;;1.22;84.70
76815;BME280;65768;49.906;19.384;2022-12-04T10:23:16;98798.77;;;1.24;84.50
76815;BME280;65768;49.906;19.384;2022-12-04T10:25:21;98791.97;;;1.33;84.63
76815;BME280;65768;49.906;19.384;2022-12-04T10:27:58;98785.79;;;1.52;84.70
76815;BME280;65768;49.906;19.384;2022-12-04T10:30:33;98780.63;;;1.59;84.38
76815;BME280;65768;49.906;19.384;2022-12-04T10:35:58;98776.50;;;1.67;83.90
76815;BME280;65768;49.906;19.384;2022-12-04T10:41:30;98787.92;;;1.77;84.02
76815;BME280;65768;49.906;19.384;2022-12-04T10:44:03;98785.95;;;1.78;83.85
76815;BME280;65768;49.906;19.384;2022-12-04T10:46:33;98792.34;;;1.91;84.03
76815;BME280;65768;49.906;19.384;2022-12-04T10:49:05;98782.73;;;2.03;83.54
76815;BME280;65768;49.906;19.384;2022-12-04T10:51:42;98781.55;;;2.00;83.24
76815;BME280;65768;49.906;19.384;2022-12-04T10:56:56;98784.71;;;1.94;83.24
76815;BME280;65768;49.906;19.384;2022-12-04T10:59:27;98789.05;;;1.91;83.49
76815;BME280;65768;49.906;19.384;2022-12-04T11:02:26;98783.58;;;1.99;83.72
76815;BME280;65768;49.906;19.384;2022-12-04T11:05:06;98782.14;;;2.05;83.62
76815;BME280;65768;49.906;19.384;2022-12-04T11:07:43;98783.29;;;2.08;83.41
76815;BME280;65768;49.906;19.384;2022-12-04T11:10:33;98786.55;;;2.12;83.50
76815;BME280;65768;49.906;19.384;2022-12-04T11:13:20;98787.80;;;2.17;83.32
76815;BME280;65768;49.906;19.384;2022-12-04T11:15:55;98785.23;;;2.10;83.24
76815;BME280;65768;49.906;19.384;2022-12-04T11:18:30;98779.73;;;2.10;83.61
76815;BME280;65768;49.906;19.384;2022-12-04T11:21:05;98779.06;;;2.14;83.40
76815;BME280;65768;49.906;19.384;2022-12-04T11:23:42;98782.71;;;2.11;83.41
76815;BME280;65768;49.906;19.384;2022-12-04T11:26:11;98785.72;;;2.13;83.37
76815;BME280;65768;49.906;19.384;2022-12-04T11:28:43;98789.59;;;2.15;83.42
76815;BME280;65768;49.906;19.384;2022-12-04T11:31:18;98788.63;;;2.13;83.23
76815;BME280;65768;49.906;19.384;2022-12-04T11:33:54;98786.11;;;2.14;83.40
76815;BME280;65768;49.906;19.384;2022-12-04T11:36:27;98780.58;;;2.14;83.29
76815;BME280;65768;49.906;19.384;2022-12-04T11:39:33;98775.20;;;2.17;83.63
76815;BME280;65768;49.906;19.384;2022-12-04T11:42:04;98771.64;;;2.05;83.53
76815;BME280;65768;49.906;19.384;2022-12-04T11:44:34;98773.02;;;1.78;83.72
76815;BME280;65768;49.906;19.384;2022-12-04T11:47:04;98783.04;;;1.44;84.31
76815;BME280;65768;49.906;19.384;2022-12-04T11:49:33;98786.77;;;1.28;84.94
76815;BME280;65768;49.906;19.384;2022-12-04T11:55:00;98785.43;;;1.22;85.82
76815;BME280;65768;49.906;19.384;2022-12-04T12:00:48;98777.00;;;1.10;85.98
76815;BME280;65768;49.906;19.384;2022-12-04T12:03:55;98771.77;;;1.12;86.04
76815;BME280;65768;49.906;19.384;2022-12-04T12:06:36;98776.54;;;1.18;86.28
76815;BME280;65768;49.906;19.384;2022-12-04T12:12:13;98786.02;;;1.16;86.22
76815;BME280;65768;49.906;19.384;2022-12-04T12:17:48;98787.23;;;1.12;86.23
76815;BME280;65768;49.906;19.384;2022-12-04T12:20:36;98790.02;;;1.17;86.23
76815;BME280;65768;49.906;19.384;2022-12-04T12:25:57;98778.20;;;1.17;86.30
76815;BME280;65768;49.906;19.384;2022-12-04T12:33:45;98785.05;;;1.17;86.50
76815;BME280;65768;49.906;19.384;2022-12-04T12:36:17;98787.70;;;1.23;86.34
76815;BME280;65768;49.906;19.384;2022-12-04T12:38:54;98786.20;;;1.27;86.40
76815;BME280;65768;49.906;19.384;2022-12-04T12:41:34;98787.39;;;1.31;86.58
76815;BME280;65768;49.906;19.384;2022-12-04T12:46:41;98784.86;;;1.39;86.29
76815;BME280;65768;49.906;19.384;2022-12-04T12:54:50;98779.40;;;1.43;86.13
76815;BME280;65768;49.906;19.384;2022-12-04T12:57:32;98775.77;;;1.50;86.08
76815;BME280;65768;49.906;19.384;2022-12-04T13:00:14;98775.73;;;1.54;86.17
76815;BME280;65768;49.906;19.384;2022-12-04T13:02:59;98774.67;;;1.57;85.92
76815;BME280;65768;49.906;19.384;2022-12-04T13:05:38;98773.21;;;1.58;85.95
76815;BME280;65768;49.906;19.384;2022-12-04T13:08:24;98773.70;;;1.61;85.99
76815;BME280;65768;49.906;19.384;2022-12-04T13:13:25;98776.83;;;1.63;86.03
76815;BME280;65768;49.906;19.384;2022-12-04T13:16:15;98772.70;;;1.63;86.11
76815;BME280;65768;49.906;19.384;2022-12-04T13:18:53;98776.70;;;1.60;86.01
76815;BME280;65768;49.906;19.384;2022-12-04T13:21:40;98769.86;;;1.57;85.98
76815;BME280;65768;49.906;19.384;2022-12-04T13:41:01;98775.05;;;1.42;86.34
76815;BME280;65768;49.906;19.384;2022-12-04T13:46:29;98772.73;;;1.40;86.74
76815;BME280;65768;49.906;19.384;2022-12-04T13:49:31;98771.45;;;1.38;86.56
76815;BME280;65768;49.906;19.384;2022-12-04T13:51:59;98767.73;;;1.36;86.57
76815;BME280;65768;49.906;19.384;2022-12-04T13:54:34;98774.11;;;1.36;86.84
76815;BME280;65768;49.906;19.384;2022-12-04T13:57:20;98778.45;;;1.38;86.83
76815;BME280;65768;49.906;19.384;2022-12-04T14:00:04;98775.00;;;1.42;86.98
76815;BME280;65768;49.906;19.384;2022-12-04T14:02:35;98771.34;;;1.40;87.03
76815;BME280;65768;49.906;19.384;2022-12-04T14:05:07;98768.45;;;1.37;87.16
76815;BME280;65768;49.906;19.384;2022-12-04T14:07:39;98774.73;;;1.35;87.26
76815;BME280;65768;49.906;19.384;2022-12-04T14:12:56;98778.35;;;1.28;87.62
76815;BME280;65768;49.906;19.384;2022-12-04T14:15:29;98779.90;;;1.25;87.71
76815;BME280;65768;49.906;19.384;2022-12-04T14:20:31;98770.92;;;1.24;87.55
76815;BME280;65768;49.906;19.384;2022-12-04T14:23:33;98766.92;;;1.23;87.79
76815;BME280;65768;49.906;19.384;2022-12-04T14:26:01;98760.09;;;1.23;88.00
76815;BME280;65768;49.906;19.384;2022-12-04T14:33:44;98761.67;;;1.20;87.77
76815;BME280;65768;49.906;19.384;2022-12-04T14:36:18;98764.27;;;1.17;87.56
76815;BME280;65768;49.906;19.384;2022-12-04T14:38:47;98768.23;;;1.10;87.64
76815;BME280;65768;49.906;19.384;2022-12-04T14:41:25;98760.61;;;1.04;87.53
76815;BME280;65768;49.906;19.384;2022-12-04T14:43:55;98759.52;;;1.03;88.04
76815;BME280;65768;49.906;19.384;2022-12-04T14:46:43;98756.57;;;1.02;88.02
76815;BME280;65768;49.906;19.384;2022-12-04T14:49:27;98753.64;;;1.02;88.05
76815;BME280;65768;49.906;19.384;2022-12-04T15:00:27;98753.23;;;0.97;88.35
76815;BME280;65768;49.906;19.384;2022-12-04T15:02:57;98753.64;;;0.99;88.32
76815;BME280;65768;49.906;19.384;2022-12-04T15:05:28;98756.42;;;0.99;88.66
76815;BME280;65768;49.906;19.384;2022-12-04T15:08:04;98755.36;;;0.99;88.57
76815;BME280;65768;49.906;19.384;2022-12-04T15:10:33;98754.63;;;0.98;88.88
76815;BME280;65768;49.906;19.384;2022-12-04T15:13:31;98752.23;;;0.98;88.87
76815;BME280;65768;49.906;19.384;2022-12-04T15:16:15;98744.70;;;0.98;88.92
76815;BME280;65768;49.906;19.384;2022-12-04T15:18:58;98743.02;;;0.99;88.91
76815;BME280;65768;49.906;19.384;2022-12-04T15:21:35;98746.29;;;1.03;89.00
76815;BME280;65768;49.906;19.384;2022-12-04T15:24:16;98750.75;;;1.06;88.84
76815;BME280;65768;49.906;19.384;2022-12-04T15:26:51;98752.52;;;1.08;89.04
76815;BME280;65768;49.906;19.384;2022-12-04T15:29:27;98761.40;;;1.07;88.90